sensor_id;sensor_type;location;lat;lon;timestamp;temperature;humidity
32536;DHT22;18974;50.838;4.636;2023-04-03T00:01:32;4.10;99.90
32536;DHT22;18974;50.838;4.636;2023-04-03T00:03:58;4.20;99.90
32536;DHT22;18974;50.838;4.636;2023-04-03T00:06:25;4.20;99.90
32536;DHT22;18974;50.838;4.636;2023-04-03T00:08:52;4.20;99.90
32536;DHT22;18974;50.838;4.636;2023-04-03T00:11:18;4.20;99.90
32536;DHT22;18974;50.838;4.636;2023-04-03T00:13:44;4.20;99.90
32536;DHT22;18974;50.838;4.636;2023-04-03T00:16:10;4.20;99.90
32536;DHT22;18974;50.838;4.636;2023-04-03T00:18:37;4.10;99.90
32536;DHT22;18974;50.838;4.636;2023-04-03T00:21:03;4.20;99.90
32536;DHT22;18974;50.838;4.636;2023-04-03T00:23:29;4.20;99.90
32536;DHT22;18974;50.838;4.636;2023-04-03T00:25:55;4.20;99.90
32536;DHT22;18974;50.838;4.636;2023-04-03T00:28:21;4.20;99.90
32536;DHT22;18974;50.838;4.636;2023-04-03T00:30:49;4.20;99.90
32536;DHT22;18974;50.838;4.636;2023-04-03T00:33:15;4.20;99.90
32536;DHT22;18974;50.838;4.636;2023-04-03T00:35:41;4.10;99.90
32536;DHT22;18974;50.838;4.636;2023-04-03T00:38:07;4.10;99.90
32536;DHT22;18974;50.838;4.636;2023-04-03T00:40:39;4.10;99.90
32536;DHT22;18974;50.838;4.636;2023-04-03T00:45:44;4.00;99.90
32536;DHT22;18974;50.838;4.636;2023-04-03T00:48:15;4.00;99.90
32536;DHT22;18974;50.838;4.636;2023-04-03T00:50:42;4.00;99.90
32536;DHT22;18974;50.838;4.636;2023-04-03T00:53:12;4.00;99.90
32536;DHT22;18974;50.838;4.636;2023-04-03T00:55:39;4.10;99.90
32536;DHT22;18974;50.838;4.636;2023-04-03T00:58:05;4.00;99.90
32536;DHT22;18974;50.838;4.636;2023-04-03T01:00:32;4.10;99.90
32536;DHT22;18974;50.838;4.636;2023-04-03T01:02:59;4.00;99.90
32536;DHT22;18974;50.838;4.636;2023-04-03T01:05:26;4.00;99.90
32536;DHT22;18974;50.838;4.636;2023-04-03T01:07:52;3.90;99.90
32536;DHT22;18974;50.838;4.636;2023-04-03T01:10:18;3.90;99.90
32536;DHT22;18974;50.838;4.636;2023-04-03T01:12:49;3.90;99.90
32536;DHT22;18974;50.838;4.636;2023-04-03T01:15:22;3.80;99.90
32536;DHT22;18974;50.838;4.636;2023-04-03T01:17:54;3.80;99.90
32536;DHT22;18974;50.838;4.636;2023-04-03T01:25:50;3.90;99.90
32536;DHT22;18974;50.838;4.636;2023-04-03T01:28:21;3.80;99.90
32536;DHT22;18974;50.838;4.636;2023-04-03T01:33:35;3.80;99.90
32536;DHT22;18974;50.838;4.636;2023-04-03T01:36:01;3.70;99.90
32536;DHT22;18974;50.838;4.636;2023-04-03T01:38:27;3.70;99.90
32536;DHT22;18974;50.838;4.636;2023-04-03T01:40:53;3.80;99.90
32536;DHT22;18974;50.838;4.636;2023-04-03T01:43:18;3.80;99.90
32536;DHT22;18974;50.838;4.636;2023-04-03T01:45:44;3.80;99.90
32536;DHT22;18974;50.838;4.636;2023-04-03T01:48:10;3.70;99.90
32536;DHT22;18974;50.838;4.636;2023-04-03T01:50:35;3.80;99.90
32536;DHT22;18974;50.838;4.636;2023-04-03T01:53:01;3.90;99.90
32536;DHT22;18974;50.838;4.636;2023-04-03T01:55:27;3.90;99.90
32536;DHT22;18974;50.838;4.636;2023-04-03T01:57:52;3.90;99.90
32536;DHT22;18974;50.838;4.636;2023-04-03T02:00:18;3.90;99.90
32536;DHT22;18974;50.838;4.636;2023-04-03T02:02:44;3.80;99.90
32536;DHT22;18974;50.838;4.636;2023-04-03T02:05:09;3.80;99.90
32536;DHT22;18974;50.838;4.636;2023-04-03T02:07:35;3.80;99.90
32536;DHT22;18974;50.838;4.636;2023-04-03T02:10:01;3.80;99.90
32536;DHT22;18974;50.838;4.636;2023-04-03T02:12:27;3.80;99.90
32536;DHT22;18974;50.838;4.636;2023-04-03T02:14:52;3.70;99.90
32536;DHT22;18974;50.838;4.636;2023-04-03T02:17:18;3.70;99.90
32536;DHT22;18974;50.838;4.636;2023-04-03T02:19:43;3.70;99.90
32536;DHT22;18974;50.838;4.636;2023-04-03T02:22:09;3.70;99.90
32536;DHT22;18974;50.838;4.636;2023-04-03T02:24:35;3.70;99.90
32536;DHT22;18974;50.838;4.636;2023-04-03T02:27:00;3.60;99.90
32536;DHT22;18974;50.838;4.636;2023-04-03T02:29:26;3.60;99.90
32536;DHT22;18974;50.838;4.636;2023-04-03T02:31:52;3.60;99.90
32536;DHT22;18974;50.838;4.636;2023-04-03T02:34:17;3.50;99.90
32536;DHT22;18974;50.838;4.636;2023-04-03T02:36:43;3.50;99.90
32536;DHT22;18974;50.838;4.636;2023-04-03T02:39:09;3.50;99.90
32536;DHT22;18974;50.838;4.636;2023-04-03T02:41:35;3.50;99.90
32536;DHT22;18974;50.838;4.636;2023-04-03T02:44:02;3.50;99.90
32536;DHT22;18974;50.838;4.636;2023-04-03T02:46:28;3.60;99.90
32536;DHT22;18974;50.838;4.636;2023-04-03T02:48:54;3.50;99.90
32536;DHT22;18974;50.838;4.636;2023-04-03T02:51:19;3.50;99.90
32536;DHT22;18974;50.838;4.636;2023-04-03T02:53:45;3.50;99.90
32536;DHT22;18974;50.838;4.636;2023-04-03T02:56:11;3.50;99.90
32536;DHT22;18974;50.838;4.636;2023-04-03T02:58:36;3.50;99.90
32536;DHT22;18974;50.838;4.636;2023-04-03T03:01:02;3.50;99.90
32536;DHT22;18974;50.838;4.636;2023-04-03T03:03:28;3.40;99.90
32536;DHT22;18974;50.838;4.636;2023-04-03T03:06:04;3.40;99.90
32536;DHT22;18974;50.838;4.636;2023-04-03T03:08:31;3.40;99.90
32536;DHT22;18974;50.838;4.636;2023-04-03T03:10:56;3.40;99.90
32536;DHT22;18974;50.838;4.636;2023-04-03T03:13:22;3.30;99.90
32536;DHT22;18974;50.838;4.636;2023-04-03T03:15:48;3.30;99.90
32536;DHT22;18974;50.838;4.636;2023-04-03T03:18:13;3.30;99.90
32536;DHT22;18974;50.838;4.636;2023-04-03T03:20:39;3.30;99.90
32536;DHT22;18974;50.838;4.636;2023-04-03T03:23:04;3.20;99.90
32536;DHT22;18974;50.838;4.636;2023-04-03T03:25:30;3.20;99.90
32536;DHT22;18974;50.838;4.636;2023-04-03T03:27:56;3.20;99.90
32536;DHT22;18974;50.838;4.636;2023-04-03T03:30:21;3.10;99.90
32536;DHT22;18974;50.838;4.636;2023-04-03T03:32:47;3.10;99.90
32536;DHT22;18974;50.838;4.636;2023-04-03T03:35:13;3.10;99.90
32536;DHT22;18974;50.838;4.636;2023-04-03T03:37:38;3.00;99.90
32536;DHT22;18974;50.838;4.636;2023-04-03T03:40:04;3.00;99.90
32536;DHT22;18974;50.838;4.636;2023-04-03T03:42:30;3.00;99.90
32536;DHT22;18974;50.838;4.636;2023-04-03T03:44:56;3.00;99.90
32536;DHT22;18974;50.838;4.636;2023-04-03T03:47:21;2.90;99.90
32536;DHT22;18974;50.838;4.636;2023-04-03T03:49:47;2.90;99.90
32536;DHT22;18974;50.838;4.636;2023-04-03T03:52:13;2.80;99.90
32536;DHT22;18974;50.838;4.636;2023-04-03T03:54:39;2.90;99.90
32536;DHT22;18974;50.838;4.636;2023-04-03T03:57:04;2.80;99.90
32536;DHT22;18974;50.838;4.636;2023-04-03T03:59:30;2.80;99.90
32536;DHT22;18974;50.838;4.636;2023-04-03T04:01:56;2.80;99.90
32536;DHT22;18974;50.838;4.636;2023-04-03T04:04:21;2.70;99.90
32536;DHT22;18974;50.838;4.636;2023-04-03T04:06:47;2.70;99.90
32536;DHT22;18974;50.838;4.636;2023-04-03T04:09:13;2.70;99.90
32536;DHT22;18974;50.838;4.636;2023-04-03T04:11:38;2.50;99.90
32536;DHT22;18974;50.838;4.636;2023-04-03T04:14:06;2.60;99.90
32536;DHT22;18974;50.838;4.636;2023-04-03T04:16:32;2.50;99.90
32536;DHT22;18974;50.838;4.636;2023-04-03T04:18:58;2.60;99.90
32536;DHT22;18974;50.838;4.636;2023-04-03T04:21:23;2.60;99.90
32536;DHT22;18974;50.838;4.636;2023-04-03T04:23:49;2.60;99.90
32536;DHT22;18974;50.838;4.636;2023-04-03T04:26:15;2.70;99.90
32536;DHT22;18974;50.838;4.636;2023-04-03T04:28:40;2.70;99.90
32536;DHT22;18974;50.838;4.636;2023-04-03T04:31:06;2.80;99.90
32536;DHT22;18974;50.838;4.636;2023-04-03T04:33:31;2.90;99.90
32536;DHT22;18974;50.838;4.636;2023-04-03T04:35:57;2.80;99.90
32536;DHT22;18974;50.838;4.636;2023-04-03T04:38:23;2.90;99.90
32536;DHT22;18974;50.838;4.636;2023-04-03T04:40:48;2.90;99.90
32536;DHT22;18974;50.838;4.636;2023-04-03T04:43:14;2.90;99.90
32536;DHT22;18974;50.838;4.636;2023-04-03T04:45:41;2.90;99.90
32536;DHT22;18974;50.838;4.636;2023-04-03T04:48:07;2.90;99.90
32536;DHT22;18974;50.838;4.636;2023-04-03T04:50:32;2.90;99.90
32536;DHT22;18974;50.838;4.636;2023-04-03T04:52:58;2.80;99.90
32536;DHT22;18974;50.838;4.636;2023-04-03T04:55:24;2.90;99.90
32536;DHT22;18974;50.838;4.636;2023-04-03T04:57:49;2.80;99.90
32536;DHT22;18974;50.838;4.636;2023-04-03T05:00:16;2.80;99.90
32536;DHT22;18974;50.838;4.636;2023-04-03T05:02:42;2.70;99.90
32536;DHT22;18974;50.838;4.636;2023-04-03T05:05:08;2.70;99.90
32536;DHT22;18974;50.838;4.636;2023-04-03T05:07:33;2.60;99.90
32536;DHT22;18974;50.838;4.636;2023-04-03T05:10:01;2.60;99.90
32536;DHT22;18974;50.838;4.636;2023-04-03T05:12:28;2.60;99.90
32536;DHT22;18974;50.838;4.636;2023-04-03T05:14:53;2.60;99.90
32536;DHT22;18974;50.838;4.636;2023-04-03T05:17:19;2.70;99.90
32536;DHT22;18974;50.838;4.636;2023-04-03T05:19:45;2.60;99.90
32536;DHT22;18974;50.838;4.636;2023-04-03T05:22:10;2.50;99.90
32536;DHT22;18974;50.838;4.636;2023-04-03T05:24:36;2.40;99.90
32536;DHT22;18974;50.838;4.636;2023-04-03T05:27:02;2.30;99.90
32536;DHT22;18974;50.838;4.636;2023-04-03T05:29:27;2.30;99.90
32536;DHT22;18974;50.838;4.636;2023-04-03T05:31:53;2.30;99.90
32536;DHT22;18974;50.838;4.636;2023-04-03T05:34:19;2.40;99.90
32536;DHT22;18974;50.838;4.636;2023-04-03T05:36:44;2.50;99.90
32536;DHT22;18974;50.838;4.636;2023-04-03T05:39:10;2.50;99.90
32536;DHT22;18974;50.838;4.636;2023-04-03T05:41:36;2.50;99.90
32536;DHT22;18974;50.838;4.636;2023-04-03T05:44:02;2.50;99.90
32536;DHT22;18974;50.838;4.636;2023-04-03T05:46:27;2.50;99.90
32536;DHT22;18974;50.838;4.636;2023-04-03T05:48:53;2.60;99.90
32536;DHT22;18974;50.838;4.636;2023-04-03T05:51:23;2.60;99.90
32536;DHT22;18974;50.838;4.636;2023-04-03T05:53:58;2.70;99.90
32536;DHT22;18974;50.838;4.636;2023-04-03T05:56:25;2.70;99.90
32536;DHT22;18974;50.838;4.636;2023-04-03T05:58:50;2.80;99.90
32536;DHT22;18974;50.838;4.636;2023-04-03T06:01:16;2.90;99.90
32536;DHT22;18974;50.838;4.636;2023-04-03T06:03:42;2.90;99.90
32536;DHT22;18974;50.838;4.636;2023-04-03T06:06:08;3.00;99.90
32536;DHT22;18974;50.838;4.636;2023-04-03T06:08:37;3.20;99.90
32536;DHT22;18974;50.838;4.636;2023-04-03T06:11:03;3.20;99.90
32536;DHT22;18974;50.838;4.636;2023-04-03T06:13:29;3.40;99.90
32536;DHT22;18974;50.838;4.636;2023-04-03T06:15:55;3.50;99.90
32536;DHT22;18974;50.838;4.636;2023-04-03T06:18:21;3.50;99.90
32536;DHT22;18974;50.838;4.636;2023-04-03T06:20:47;3.60;99.90
32536;DHT22;18974;50.838;4.636;2023-04-03T06:23:12;3.70;99.90
32536;DHT22;18974;50.838;4.636;2023-04-03T06:25:38;3.70;99.90
32536;DHT22;18974;50.838;4.636;2023-04-03T06:28:03;3.90;99.90
32536;DHT22;18974;50.838;4.636;2023-04-03T06:30:29;3.90;99.90
32536;DHT22;18974;50.838;4.636;2023-04-03T06:32:55;4.10;99.90
32536;DHT22;18974;50.838;4.636;2023-04-03T06:35:21;4.10;99.90
32536;DHT22;18974;50.838;4.636;2023-04-03T06:37:49;4.10;99.90
32536;DHT22;18974;50.838;4.636;2023-04-03T06:40:22;4.30;99.90
32536;DHT22;18974;50.838;4.636;2023-04-03T06:42:48;4.40;99.90
32536;DHT22;18974;50.838;4.636;2023-04-03T06:45:14;4.50;99.90
32536;DHT22;18974;50.838;4.636;2023-04-03T06:47:40;4.50;99.90
32536;DHT22;18974;50.838;4.636;2023-04-03T06:50:06;4.60;99.90
32536;DHT22;18974;50.838;4.636;2023-04-03T06:52:32;4.70;99.90
32536;DHT22;18974;50.838;4.636;2023-04-03T06:54:58;4.80;99.90
32536;DHT22;18974;50.838;4.636;2023-04-03T06:57:25;4.90;99.90
32536;DHT22;18974;50.838;4.636;2023-04-03T06:59:51;5.00;99.90
32536;DHT22;18974;50.838;4.636;2023-04-03T07:02:17;5.00;99.90
32536;DHT22;18974;50.838;4.636;2023-04-03T07:04:42;5.00;99.90
32536;DHT22;18974;50.838;4.636;2023-04-03T07:07:08;5.20;99.90
32536;DHT22;18974;50.838;4.636;2023-04-03T07:09:34;5.30;99.90
32536;DHT22;18974;50.838;4.636;2023-04-03T07:12:00;5.20;99.90
32536;DHT22;18974;50.838;4.636;2023-04-03T07:14:25;5.30;99.90
32536;DHT22;18974;50.838;4.636;2023-04-03T07:16:51;5.40;99.90
32536;DHT22;18974;50.838;4.636;2023-04-03T07:19:17;5.50;99.90
32536;DHT22;18974;50.838;4.636;2023-04-03T07:21:44;5.50;99.90
32536;DHT22;18974;50.838;4.636;2023-04-03T07:24:10;5.60;99.90
32536;DHT22;18974;50.838;4.636;2023-04-03T07:26:36;5.50;99.90
32536;DHT22;18974;50.838;4.636;2023-04-03T07:29:01;5.60;99.90
32536;DHT22;18974;50.838;4.636;2023-04-03T07:31:27;5.70;99.90
32536;DHT22;18974;50.838;4.636;2023-04-03T07:33:53;5.80;99.90
32536;DHT22;18974;50.838;4.636;2023-04-03T07:36:21;5.90;99.90
32536;DHT22;18974;50.838;4.636;2023-04-03T07:38:47;6.00;99.90
32536;DHT22;18974;50.838;4.636;2023-04-03T07:41:17;5.90;99.90
32536;DHT22;18974;50.838;4.636;2023-04-03T07:43:44;6.00;99.90
32536;DHT22;18974;50.838;4.636;2023-04-03T07:46:10;6.10;99.90
32536;DHT22;18974;50.838;4.636;2023-04-03T07:48:36;6.20;99.90
32536;DHT22;18974;50.838;4.636;2023-04-03T07:51:03;6.30;99.90
32536;DHT22;18974;50.838;4.636;2023-04-03T07:53:29;6.30;99.90
32536;DHT22;18974;50.838;4.636;2023-04-03T07:55:56;6.40;99.90
32536;DHT22;18974;50.838;4.636;2023-04-03T07:58:22;6.40;99.90
32536;DHT22;18974;50.838;4.636;2023-04-03T08:00:48;6.60;99.90
32536;DHT22;18974;50.838;4.636;2023-04-03T08:03:14;6.60;99.90
32536;DHT22;18974;50.838;4.636;2023-04-03T08:05:43;6.70;99.90
32536;DHT22;18974;50.838;4.636;2023-04-03T08:08:11;6.90;99.90
32536;DHT22;18974;50.838;4.636;2023-04-03T08:10:37;7.00;99.90
32536;DHT22;18974;50.838;4.636;2023-04-03T08:13:03;7.00;99.90
32536;DHT22;18974;50.838;4.636;2023-04-03T08:15:30;7.10;99.90
32536;DHT22;18974;50.838;4.636;2023-04-03T08:17:57;7.30;99.90
32536;DHT22;18974;50.838;4.636;2023-04-03T08:20:23;7.40;99.90
32536;DHT22;18974;50.838;4.636;2023-04-03T08:22:48;7.50;99.90
32536;DHT22;18974;50.838;4.636;2023-04-03T08:25:14;7.60;99.90
32536;DHT22;18974;50.838;4.636;2023-04-03T08:27:43;7.70;99.90
32536;DHT22;18974;50.838;4.636;2023-04-03T08:30:09;7.90;99.90
32536;DHT22;18974;50.838;4.636;2023-04-03T08:32:36;7.90;99.90
32536;DHT22;18974;50.838;4.636;2023-04-03T08:35:02;7.80;99.90
32536;DHT22;18974;50.838;4.636;2023-04-03T08:37:28;7.80;99.90
32536;DHT22;18974;50.838;4.636;2023-04-03T08:39:53;7.80;99.90
32536;DHT22;18974;50.838;4.636;2023-04-03T08:42:49;8.00;99.90
32536;DHT22;18974;50.838;4.636;2023-04-03T08:48:41;8.30;99.90
32536;DHT22;18974;50.838;4.636;2023-04-03T08:51:16;8.50;99.90
32536;DHT22;18974;50.838;4.636;2023-04-03T08:53:58;8.60;99.90
32536;DHT22;18974;50.838;4.636;2023-04-03T08:56:26;8.70;99.90
32536;DHT22;18974;50.838;4.636;2023-04-03T08:59:00;8.80;99.90
32536;DHT22;18974;50.838;4.636;2023-04-03T09:01:34;8.90;99.90
32536;DHT22;18974;50.838;4.636;2023-04-03T09:04:01;8.90;99.90
32536;DHT22;18974;50.838;4.636;2023-04-03T09:06:30;9.00;99.90
32536;DHT22;18974;50.838;4.636;2023-04-03T09:09:25;8.80;99.90
32536;DHT22;18974;50.838;4.636;2023-04-03T09:18:17;9.00;99.90
32536;DHT22;18974;50.838;4.636;2023-04-03T09:23:51;9.00;99.90
32536;DHT22;18974;50.838;4.636;2023-04-03T09:26:28;9.00;99.90
32536;DHT22;18974;50.838;4.636;2023-04-03T09:28:59;9.00;99.90
32536;DHT22;18974;50.838;4.636;2023-04-03T09:31:35;8.90;99.90
32536;DHT22;18974;50.838;4.636;2023-04-03T09:34:22;9.00;99.90
32536;DHT22;18974;50.838;4.636;2023-04-03T09:36:54;9.20;99.90
32536;DHT22;18974;50.838;4.636;2023-04-03T09:39:23;9.20;99.90
32536;DHT22;18974;50.838;4.636;2023-04-03T09:44:36;9.30;99.90
32536;DHT22;18974;50.838;4.636;2023-04-03T09:47:32;9.40;99.90
32536;DHT22;18974;50.838;4.636;2023-04-03T09:50:18;9.70;99.90
32536;DHT22;18974;50.838;4.636;2023-04-03T09:52:47;9.70;99.90
32536;DHT22;18974;50.838;4.636;2023-04-03T09:55:26;9.60;99.90
32536;DHT22;18974;50.838;4.636;2023-04-03T09:57:59;9.70;99.90
32536;DHT22;18974;50.838;4.636;2023-04-03T10:00:28;9.90;99.90
32536;DHT22;18974;50.838;4.636;2023-04-03T10:02:56;10.10;99.90
32536;DHT22;18974;50.838;4.636;2023-04-03T10:08:08;10.10;99.90
32536;DHT22;18974;50.838;4.636;2023-04-03T10:10:34;10.00;99.90
32536;DHT22;18974;50.838;4.636;2023-04-03T10:13:14;10.10;99.90
32536;DHT22;18974;50.838;4.636;2023-04-03T10:15:55;10.40;99.90
32536;DHT22;18974;50.838;4.636;2023-04-03T10:18:29;10.70;99.90
32536;DHT22;18974;50.838;4.636;2023-04-03T10:21:04;10.70;99.90
32536;DHT22;18974;50.838;4.636;2023-04-03T10:23:43;10.80;99.90
32536;DHT22;18974;50.838;4.636;2023-04-03T10:26:29;10.70;99.90
32536;DHT22;18974;50.838;4.636;2023-04-03T10:29:08;10.70;99.90
32536;DHT22;18974;50.838;4.636;2023-04-03T10:34:45;11.10;99.90
32536;DHT22;18974;50.838;4.636;2023-04-03T10:37:24;11.20;99.90
32536;DHT22;18974;50.838;4.636;2023-04-03T10:39:57;11.10;99.90
32536;DHT22;18974;50.838;4.636;2023-04-03T10:42:46;11.20;99.90
32536;DHT22;18974;50.838;4.636;2023-04-03T10:45:21;11.10;99.90
32536;DHT22;18974;50.838;4.636;2023-04-03T10:50:46;11.20;99.90
32536;DHT22;18974;50.838;4.636;2023-04-03T10:56:11;11.00;99.90
32536;DHT22;18974;50.838;4.636;2023-04-03T10:58:49;11.10;99.90
32536;DHT22;18974;50.838;4.636;2023-04-03T11:01:23;11.20;99.90
32536;DHT22;18974;50.838;4.636;2023-04-03T11:03:56;11.20;99.90
32536;DHT22;18974;50.838;4.636;2023-04-03T11:06:25;11.20;99.90
32536;DHT22;18974;50.838;4.636;2023-04-03T11:09:05;11.20;99.90
32536;DHT22;18974;50.838;4.636;2023-04-03T11:11:36;11.20;99.90
32536;DHT22;18974;50.838;4.636;2023-04-03T11:14:09;11.20;98.70
32536;DHT22;18974;50.838;4.636;2023-04-03T11:16:43;11.00;99.90
32536;DHT22;18974;50.838;4.636;2023-04-03T11:21:50;11.30;99.90
32536;DHT22;18974;50.838;4.636;2023-04-03T11:24:25;11.50;99.90
32536;DHT22;18974;50.838;4.636;2023-04-03T11:26:53;11.50;99.90
32536;DHT22;18974;50.838;4.636;2023-04-03T11:29:23;11.30;98.80
32536;DHT22;18974;50.838;4.636;2023-04-03T11:34:33;11.10;99.90
32536;DHT22;18974;50.838;4.636;2023-04-03T11:37:02;11.20;99.90
32536;DHT22;18974;50.838;4.636;2023-04-03T11:39:34;11.30;99.90
32536;DHT22;18974;50.838;4.636;2023-04-03T11:42:32;11.40;99.90
32536;DHT22;18974;50.838;4.636;2023-04-03T11:47:54;12.00;99.90
32536;DHT22;18974;50.838;4.636;2023-04-03T11:50:41;12.20;96.90
32536;DHT22;18974;50.838;4.636;2023-04-03T12:00:57;11.80;96.80
32536;DHT22;18974;50.838;4.636;2023-04-03T12:08:28;12.00;95.50
32536;DHT22;18974;50.838;4.636;2023-04-03T12:40:00;12.50;90.20
32536;DHT22;18974;50.838;4.636;2023-04-03T12:45:21;12.50;90.60
32536;DHT22;18974;50.838;4.636;2023-04-03T12:47:49;12.40;88.50
32536;DHT22;18974;50.838;4.636;2023-04-03T12:50:24;12.40;91.80
32536;DHT22;18974;50.838;4.636;2023-04-03T12:55:30;12.60;88.80
32536;DHT22;18974;50.838;4.636;2023-04-03T12:57:56;12.80;89.30
32536;DHT22;18974;50.838;4.636;2023-04-03T13:00:34;12.70;87.40
32536;DHT22;18974;50.838;4.636;2023-04-03T13:03:02;12.60;87.00
32536;DHT22;18974;50.838;4.636;2023-04-03T13:05:31;12.60;84.60
32536;DHT22;18974;50.838;4.636;2023-04-03T13:08:03;12.50;83.70
32536;DHT22;18974;50.838;4.636;2023-04-03T13:10:31;12.50;83.40
32536;DHT22;18974;50.838;4.636;2023-04-03T13:13:07;12.60;87.10
32536;DHT22;18974;50.838;4.636;2023-04-03T13:15:45;12.50;87.30
32536;DHT22;18974;50.838;4.636;2023-04-03T13:18:33;12.50;86.40
32536;DHT22;18974;50.838;4.636;2023-04-03T13:21:18;12.70;87.40
32536;DHT22;18974;50.838;4.636;2023-04-03T13:23:48;12.70;84.20
32536;DHT22;18974;50.838;4.636;2023-04-03T13:26:16;12.60;87.30
32536;DHT22;18974;50.838;4.636;2023-04-03T13:28:44;12.70;90.10
32536;DHT22;18974;50.838;4.636;2023-04-03T13:34:13;12.50;86.40
32536;DHT22;18974;50.838;4.636;2023-04-03T13:41:46;12.70;86.40
32536;DHT22;18974;50.838;4.636;2023-04-03T13:44:26;12.40;89.20
32536;DHT22;18974;50.838;4.636;2023-04-03T13:46:53;12.60;90.30
32536;DHT22;18974;50.838;4.636;2023-04-03T13:51:52;13.00;91.80
32536;DHT22;18974;50.838;4.636;2023-04-03T13:54:24;13.10;88.60
32536;DHT22;18974;50.838;4.636;2023-04-03T13:56:56;13.10;85.30
32536;DHT22;18974;50.838;4.636;2023-04-03T13:59:28;13.00;84.00
32536;DHT22;18974;50.838;4.636;2023-04-03T14:07:09;12.90;80.70
32536;DHT22;18974;50.838;4.636;2023-04-03T14:09:35;12.90;82.30
32536;DHT22;18974;50.838;4.636;2023-04-03T14:12:06;12.80;83.30
32536;DHT22;18974;50.838;4.636;2023-04-03T14:14:35;12.90;89.10
32536;DHT22;18974;50.838;4.636;2023-04-03T14:17:17;13.00;82.70
32536;DHT22;18974;50.838;4.636;2023-04-03T14:19:44;13.00;90.00
32536;DHT22;18974;50.838;4.636;2023-04-03T14:22:25;13.10;81.80
32536;DHT22;18974;50.838;4.636;2023-04-03T14:24:52;13.00;81.60
32536;DHT22;18974;50.838;4.636;2023-04-03T14:27:28;12.50;84.30
32536;DHT22;18974;50.838;4.636;2023-04-03T14:29:56;12.40;89.30
32536;DHT22;18974;50.838;4.636;2023-04-03T14:32:23;12.50;88.40
32536;DHT22;18974;50.838;4.636;2023-04-03T14:34:50;12.70;85.00
32536;DHT22;18974;50.838;4.636;2023-04-03T14:37:20;12.70;88.80
32536;DHT22;18974;50.838;4.636;2023-04-03T14:39:47;12.70;85.90
32536;DHT22;18974;50.838;4.636;2023-04-03T14:42:16;12.70;83.10
32536;DHT22;18974;50.838;4.636;2023-04-03T14:44:42;12.80;85.40
32536;DHT22;18974;50.838;4.636;2023-04-03T14:47:11;12.80;83.60
32536;DHT22;18974;50.838;4.636;2023-04-03T14:49:37;12.70;84.50
32536;DHT22;18974;50.838;4.636;2023-04-03T14:52:03;12.60;83.40
32536;DHT22;18974;50.838;4.636;2023-04-03T14:54:29;12.60;86.10
32536;DHT22;18974;50.838;4.636;2023-04-03T14:56:55;12.40;84.40
32536;DHT22;18974;50.838;4.636;2023-04-03T14:59:22;12.30;85.00
32536;DHT22;18974;50.838;4.636;2023-04-03T15:01:48;12.30;86.60
32536;DHT22;18974;50.838;4.636;2023-04-03T15:04:16;12.20;86.90
32536;DHT22;18974;50.838;4.636;2023-04-03T15:06:43;12.10;85.30
32536;DHT22;18974;50.838;4.636;2023-04-03T15:09:21;12.00;87.00
32536;DHT22;18974;50.838;4.636;2023-04-03T15:11:49;12.00;88.20
32536;DHT22;18974;50.838;4.636;2023-04-03T15:14:15;11.90;86.40
32536;DHT22;18974;50.838;4.636;2023-04-03T15:16:41;11.90;85.30
32536;DHT22;18974;50.838;4.636;2023-04-03T15:19:06;11.80;86.10
32536;DHT22;18974;50.838;4.636;2023-04-03T15:21:32;11.80;88.30
32536;DHT22;18974;50.838;4.636;2023-04-03T15:23:58;11.90;85.90
32536;DHT22;18974;50.838;4.636;2023-04-03T15:26:24;11.90;85.80
32536;DHT22;18974;50.838;4.636;2023-04-03T15:28:50;11.80;88.20
32536;DHT22;18974;50.838;4.636;2023-04-03T15:31:16;11.90;89.30
32536;DHT22;18974;50.838;4.636;2023-04-03T15:33:41;11.80;87.80
32536;DHT22;18974;50.838;4.636;2023-04-03T15:36:07;11.60;91.10
32536;DHT22;18974;50.838;4.636;2023-04-03T15:38:34;11.60;90.40
32536;DHT22;18974;50.838;4.636;2023-04-03T15:40:59;11.70;88.90
32536;DHT22;18974;50.838;4.636;2023-04-03T15:43:25;11.60;89.60
32536;DHT22;18974;50.838;4.636;2023-04-03T15:45:51;11.60;90.10
32536;DHT22;18974;50.838;4.636;2023-04-03T15:48:17;11.70;90.90
32536;DHT22;18974;50.838;4.636;2023-04-03T15:50:42;11.60;89.40
32536;DHT22;18974;50.838;4.636;2023-04-03T15:53:09;11.70;90.50
32536;DHT22;18974;50.838;4.636;2023-04-03T15:55:36;11.60;90.60
32536;DHT22;18974;50.838;4.636;2023-04-03T15:58:03;11.50;90.00
32536;DHT22;18974;50.838;4.636;2023-04-03T16:00:29;11.60;90.30
32536;DHT22;18974;50.838;4.636;2023-04-03T16:02:59;11.60;90.50
32536;DHT22;18974;50.838;4.636;2023-04-03T16:05:27;11.60;90.30
32536;DHT22;18974;50.838;4.636;2023-04-03T16:07:53;11.60;90.50
32536;DHT22;18974;50.838;4.636;2023-04-03T16:10:20;11.60;90.10
32536;DHT22;18974;50.838;4.636;2023-04-03T16:12:46;11.50;90.30
32536;DHT22;18974;50.838;4.636;2023-04-03T16:15:11;11.50;90.70
32536;DHT22;18974;50.838;4.636;2023-04-03T16:17:37;11.40;91.10
32536;DHT22;18974;50.838;4.636;2023-04-03T16:20:05;11.50;90.90
32536;DHT22;18974;50.838;4.636;2023-04-03T16:22:32;11.40;90.60
32536;DHT22;18974;50.838;4.636;2023-04-03T16:24:58;11.20;91.00
32536;DHT22;18974;50.838;4.636;2023-04-03T16:27:24;11.30;90.60
32536;DHT22;18974;50.838;4.636;2023-04-03T16:29:55;11.30;90.70
32536;DHT22;18974;50.838;4.636;2023-04-03T16:32:21;11.20;90.70
32536;DHT22;18974;50.838;4.636;2023-04-03T16:34:48;11.20;91.30
32536;DHT22;18974;50.838;4.636;2023-04-03T16:37:14;11.20;90.30
32536;DHT22;18974;50.838;4.636;2023-04-03T16:39:40;11.20;91.00
32536;DHT22;18974;50.838;4.636;2023-04-03T16:42:05;11.10;90.60
32536;DHT22;18974;50.838;4.636;2023-04-03T16:44:31;11.00;90.60
32536;DHT22;18974;50.838;4.636;2023-04-03T16:46:57;10.90;91.40
32536;DHT22;18974;50.838;4.636;2023-04-03T16:49:22;10.90;91.40
32536;DHT22;18974;50.838;4.636;2023-04-03T16:51:48;10.90;90.60
32536;DHT22;18974;50.838;4.636;2023-04-03T16:54:14;10.90;90.90
32536;DHT22;18974;50.838;4.636;2023-04-03T16:56:40;10.80;90.90
32536;DHT22;18974;50.838;4.636;2023-04-03T16:59:06;10.80;91.10
32536;DHT22;18974;50.838;4.636;2023-04-03T17:01:32;10.80;90.60
32536;DHT22;18974;50.838;4.636;2023-04-03T17:03:58;10.70;90.60
32536;DHT22;18974;50.838;4.636;2023-04-03T17:06:24;10.70;91.50
32536;DHT22;18974;50.838;4.636;2023-04-03T17:08:51;10.60;92.00
32536;DHT22;18974;50.838;4.636;2023-04-03T17:11:17;10.70;91.70
32536;DHT22;18974;50.838;4.636;2023-04-03T17:13:43;10.70;91.00
32536;DHT22;18974;50.838;4.636;2023-04-03T17:16:11;10.50;91.20
32536;DHT22;18974;50.838;4.636;2023-04-03T17:18:38;10.30;90.40
32536;DHT22;18974;50.838;4.636;2023-04-03T17:21:05;10.30;91.00
32536;DHT22;18974;50.838;4.636;2023-04-03T17:23:31;10.20;91.50
32536;DHT22;18974;50.838;4.636;2023-04-03T17:25:59;10.30;91.30
32536;DHT22;18974;50.838;4.636;2023-04-03T17:28:25;10.20;91.50
32536;DHT22;18974;50.838;4.636;2023-04-03T17:31:00;10.10;91.50
32536;DHT22;18974;50.838;4.636;2023-04-03T17:33:27;10.00;91.60
32536;DHT22;18974;50.838;4.636;2023-04-03T17:35:59;9.90;92.20